sensor_id;sensor_type;location;lat;lon;timestamp;P1;durP1;ratioP1;P2;durP2;ratioP2
462;SDS011;218;51.902;9.542;2022-07-18T00:00:00;5.13;;;4.70;;
462;SDS011;218;51.902;9.542;2022-07-18T00:02:27;4.80;;;4.50;;
462;SDS011;218;51.902;9.542;2022-07-18T00:04:57;4.93;;;4.73;;
462;SDS011;218;51.902;9.542;2022-07-18T00:07:24;4.73;;;4.47;;
462;SDS011;218;51.902;9.542;2022-07-18T00:09:54;4.70;;;4.40;;
462;SDS011;218;51.902;9.542;2022-07-18T00:12:21;4.30;;;4.10;;
462;SDS011;218;51.902;9.542;2022-07-18T00:14:48;5.20;;;4.90;;
462;SDS011;218;51.902;9.542;2022-07-18T00:17:15;4.90;;;4.60;;
462;SDS011;218;51.902;9.542;2022-07-18T00:19:42;4.50;;;4.20;;
462;SDS011;218;51.902;9.542;2022-07-18T00:22:10;4.40;;;4.20;;
462;SDS011;218;51.902;9.542;2022-07-18T00:24:37;4.90;;;4.60;;
462;SDS011;218;51.902;9.542;2022-07-18T00:27:06;5.00;;;4.70;;
462;SDS011;218;51.902;9.542;2022-07-18T00:29:33;6.23;;;4.53;;
462;SDS011;218;51.902;9.542;2022-07-18T00:32:02;4.50;;;4.30;;
462;SDS011;218;51.902;9.542;2022-07-18T00:34:29;4.93;;;4.60;;
462;SDS011;218;51.902;9.542;2022-07-18T00:36:56;4.90;;;4.50;;
462;SDS011;218;51.902;9.542;2022-07-18T00:39:23;4.63;;;4.37;;
462;SDS011;218;51.902;9.542;2022-07-18T00:41:50;4.60;;;4.37;;
462;SDS011;218;51.902;9.542;2022-07-18T00:44:19;4.83;;;4.53;;
462;SDS011;218;51.902;9.542;2022-07-18T00:46:48;5.57;;;5.27;;
462;SDS011;218;51.902;9.542;2022-07-18T00:49:15;4.70;;;4.50;;
462;SDS011;218;51.902;9.542;2022-07-18T00:51:42;4.70;;;4.50;;
462;SDS011;218;51.902;9.542;2022-07-18T00:54:09;4.57;;;4.37;;
462;SDS011;218;51.902;9.542;2022-07-18T00:56:37;4.90;;;4.40;;
462;SDS011;218;51.902;9.542;2022-07-18T00:59:05;4.80;;;4.60;;
462;SDS011;218;51.902;9.542;2022-07-18T01:01:34;4.77;;;4.50;;
462;SDS011;218;51.902;9.542;2022-07-18T01:04:12;4.30;;;4.10;;
462;SDS011;218;51.902;9.542;2022-07-18T01:06:41;4.83;;;4.43;;
462;SDS011;218;51.902;9.542;2022-07-18T01:09:08;4.40;;;4.10;;
462;SDS011;218;51.902;9.542;2022-07-18T01:11:36;4.40;;;4.20;;
462;SDS011;218;51.902;9.542;2022-07-18T01:14:03;5.10;;;4.80;;
462;SDS011;218;51.902;9.542;2022-07-18T01:16:31;4.70;;;4.40;;
462;SDS011;218;51.902;9.542;2022-07-18T01:19:01;6.00;;;5.70;;
462;SDS011;218;51.902;9.542;2022-07-18T01:21:30;5.37;;;4.93;;
462;SDS011;218;51.902;9.542;2022-07-18T01:23:57;5.23;;;4.93;;
462;SDS011;218;51.902;9.542;2022-07-18T01:26:24;4.93;;;4.73;;
462;SDS011;218;51.902;9.542;2022-07-18T01:28:52;4.40;;;4.20;;
462;SDS011;218;51.902;9.542;2022-07-18T01:31:19;5.00;;;4.80;;
462;SDS011;218;51.902;9.542;2022-07-18T01:33:46;4.63;;;4.43;;
462;SDS011;218;51.902;9.542;2022-07-18T01:36:13;4.73;;;4.53;;
462;SDS011;218;51.902;9.542;2022-07-18T01:38:41;4.70;;;4.40;;
462;SDS011;218;51.902;9.542;2022-07-18T01:41:08;5.13;;;4.90;;
462;SDS011;218;51.902;9.542;2022-07-18T01:43:39;4.87;;;4.57;;
462;SDS011;218;51.902;9.542;2022-07-18T01:46:08;4.60;;;4.40;;
462;SDS011;218;51.902;9.542;2022-07-18T01:48:36;5.20;;;4.80;;
462;SDS011;218;51.902;9.542;2022-07-18T01:51:03;4.50;;;4.30;;
462;SDS011;218;51.902;9.542;2022-07-18T01:53:35;5.30;;;5.03;;
462;SDS011;218;51.902;9.542;2022-07-18T01:56:05;4.93;;;4.63;;
462;SDS011;218;51.902;9.542;2022-07-18T01:58:33;4.67;;;4.47;;
462;SDS011;218;51.902;9.542;2022-07-18T02:01:00;5.07;;;4.77;;
462;SDS011;218;51.902;9.542;2022-07-18T02:03:27;4.83;;;4.53;;
462;SDS011;218;51.902;9.542;2022-07-18T02:05:54;4.33;;;4.13;;
462;SDS011;218;51.902;9.542;2022-07-18T02:08:21;5.43;;;5.17;;
462;SDS011;218;51.902;9.542;2022-07-18T02:10:51;4.50;;;4.30;;
462;SDS011;218;51.902;9.542;2022-07-18T02:13:20;5.43;;;5.13;;
462;SDS011;218;51.902;9.542;2022-07-18T02:15:50;4.77;;;4.47;;
462;SDS011;218;51.902;9.542;2022-07-18T02:18:20;5.30;;;4.90;;
462;SDS011;218;51.902;9.542;2022-07-18T02:20:47;5.33;;;4.90;;
462;SDS011;218;51.902;9.542;2022-07-18T02:23:14;4.70;;;4.40;;
462;SDS011;218;51.902;9.542;2022-07-18T02:25:41;4.97;;;4.77;;
462;SDS011;218;51.902;9.542;2022-07-18T02:28:08;5.30;;;5.00;;
462;SDS011;218;51.902;9.542;2022-07-18T02:30:36;4.67;;;4.40;;
462;SDS011;218;51.902;9.542;2022-07-18T02:33:03;4.93;;;4.70;;
462;SDS011;218;51.902;9.542;2022-07-18T02:35:31;4.93;;;4.70;;
462;SDS011;218;51.902;9.542;2022-07-18T02:37:58;5.13;;;4.73;;
462;SDS011;218;51.902;9.542;2022-07-18T02:40:25;4.90;;;4.70;;
462;SDS011;218;51.902;9.542;2022-07-18T02:42:52;5.13;;;4.70;;
462;SDS011;218;51.902;9.542;2022-07-18T02:45:19;5.00;;;4.70;;
462;SDS011;218;51.902;9.542;2022-07-18T02:47:47;4.67;;;4.47;;
462;SDS011;218;51.902;9.542;2022-07-18T02:50:14;5.37;;;4.97;;
462;SDS011;218;51.902;9.542;2022-07-18T02:52:41;4.30;;;4.20;;
462;SDS011;218;51.902;9.542;2022-07-18T02:55:09;5.60;;;5.20;;
462;SDS011;218;51.902;9.542;2022-07-18T02:57:36;5.17;;;4.80;;
462;SDS011;218;51.902;9.542;2022-07-18T03:00:04;4.90;;;4.70;;
462;SDS011;218;51.902;9.542;2022-07-18T03:02:33;4.33;;;4.13;;
462;SDS011;218;51.902;9.542;2022-07-18T03:05:02;4.80;;;4.50;;
462;SDS011;218;51.902;9.542;2022-07-18T03:07:31;4.77;;;4.53;;
462;SDS011;218;51.902;9.542;2022-07-18T03:09:58;4.67;;;4.40;;
462;SDS011;218;51.902;9.542;2022-07-18T03:12:25;4.67;;;4.47;;
462;SDS011;218;51.902;9.542;2022-07-18T03:14:54;4.77;;;4.37;;
462;SDS011;218;51.902;9.542;2022-07-18T03:17:24;4.00;;;3.90;;
462;SDS011;218;51.902;9.542;2022-07-18T03:19:51;4.97;;;4.67;;
462;SDS011;218;51.902;9.542;2022-07-18T03:22:19;4.90;;;4.70;;
462;SDS011;218;51.902;9.542;2022-07-18T03:24:46;4.50;;;4.30;;
462;SDS011;218;51.902;9.542;2022-07-18T03:27:27;4.43;;;4.23;;
462;SDS011;218;51.902;9.542;2022-07-18T03:30:26;4.83;;;4.43;;
462;SDS011;218;51.902;9.542;2022-07-18T03:32:53;5.10;;;4.90;;
462;SDS011;218;51.902;9.542;2022-07-18T03:35:20;4.50;;;4.30;;
462;SDS011;218;51.902;9.542;2022-07-18T03:37:48;4.40;;;4.30;;
462;SDS011;218;51.902;9.542;2022-07-18T03:40:15;4.73;;;4.40;;
462;SDS011;218;51.902;9.542;2022-07-18T03:42:42;4.40;;;4.10;;
462;SDS011;218;51.902;9.542;2022-07-18T03:45:09;4.77;;;4.57;;
462;SDS011;218;51.902;9.542;2022-07-18T03:47:36;4.97;;;4.77;;
462;SDS011;218;51.902;9.542;2022-07-18T03:50:04;4.70;;;4.50;;
462;SDS011;218;51.902;9.542;2022-07-18T03:52:31;5.30;;;4.80;;
462;SDS011;218;51.902;9.542;2022-07-18T03:55:00;4.70;;;4.40;;
462;SDS011;218;51.902;9.542;2022-07-18T03:57:28;4.97;;;4.77;;
462;SDS011;218;51.902;9.542;2022-07-18T03:59:55;4.50;;;4.30;;
462;SDS011;218;51.902;9.542;2022-07-18T04:02:28;4.90;;;4.60;;
462;SDS011;218;51.902;9.542;2022-07-18T04:04:55;5.37;;;5.07;;
462;SDS011;218;51.902;9.542;2022-07-18T04:07:22;5.00;;;4.80;;
462;SDS011;218;51.902;9.542;2022-07-18T04:09:49;4.60;;;4.40;;
462;SDS011;218;51.902;9.542;2022-07-18T04:12:17;5.07;;;4.77;;
462;SDS011;218;51.902;9.542;2022-07-18T04:14:44;4.90;;;4.70;;
462;SDS011;218;51.902;9.542;2022-07-18T04:17:11;4.90;;;4.60;;
462;SDS011;218;51.902;9.542;2022-07-18T04:19:38;4.90;;;4.70;;
462;SDS011;218;51.902;9.542;2022-07-18T04:22:05;5.13;;;4.93;;
462;SDS011;218;51.902;9.542;2022-07-18T04:24:33;4.93;;;4.73;;
462;SDS011;218;51.902;9.542;2022-07-18T04:27:00;5.37;;;5.07;;
462;SDS011;218;51.902;9.542;2022-07-18T04:29:28;4.93;;;4.73;;
462;SDS011;218;51.902;9.542;2022-07-18T04:31:56;4.87;;;4.67;;
462;SDS011;218;51.902;9.542;2022-07-18T04:34:23;4.97;;;4.67;;
462;SDS011;218;51.902;9.542;2022-07-18T04:36:51;5.47;;;5.17;;
462;SDS011;218;51.902;9.542;2022-07-18T04:39:18;5.27;;;5.00;;
462;SDS011;218;51.902;9.542;2022-07-18T04:41:45;5.07;;;4.77;;
462;SDS011;218;51.902;9.542;2022-07-18T04:44:12;5.50;;;5.20;;
462;SDS011;218;51.902;9.542;2022-07-18T04:46:42;5.73;;;5.43;;
462;SDS011;218;51.902;9.542;2022-07-18T04:49:09;5.60;;;5.30;;
462;SDS011;218;51.902;9.542;2022-07-18T04:51:36;5.43;;;5.17;;
462;SDS011;218;51.902;9.542;2022-07-18T04:54:03;4.83;;;4.63;;
462;SDS011;218;51.902;9.542;2022-07-18T04:56:30;5.13;;;4.93;;
462;SDS011;218;51.902;9.542;2022-07-18T04:58:57;4.87;;;4.57;;
462;SDS011;218;51.902;9.542;2022-07-18T05:01:24;4.63;;;4.43;;
462;SDS011;218;51.902;9.542;2022-07-18T05:03:52;5.63;;;5.10;;
462;SDS011;218;51.902;9.542;2022-07-18T05:06:19;5.03;;;4.70;;
462;SDS011;218;51.902;9.542;2022-07-18T05:08:46;4.87;;;4.63;;
462;SDS011;218;51.902;9.542;2022-07-18T05:11:13;5.40;;;5.00;;
462;SDS011;218;51.902;9.542;2022-07-18T05:13:40;6.53;;;5.90;;
462;SDS011;218;51.902;9.542;2022-07-18T05:16:07;5.37;;;4.97;;
462;SDS011;218;51.902;9.542;2022-07-18T05:18:35;5.70;;;5.23;;
462;SDS011;218;51.902;9.542;2022-07-18T05:21:03;5.07;;;4.67;;
462;SDS011;218;51.902;9.542;2022-07-18T05:23:30;5.33;;;5.07;;
462;SDS011;218;51.902;9.542;2022-07-18T05:25:57;5.20;;;4.90;;
462;SDS011;218;51.902;9.542;2022-07-18T05:28:24;5.00;;;4.80;;
462;SDS011;218;51.902;9.542;2022-07-18T05:30:51;5.33;;;5.03;;
462;SDS011;218;51.902;9.542;2022-07-18T05:33:19;6.10;;;5.70;;
462;SDS011;218;51.902;9.542;2022-07-18T05:35:46;5.60;;;5.37;;
462;SDS011;218;51.902;9.542;2022-07-18T05:38:14;5.90;;;5.60;;
462;SDS011;218;51.902;9.542;2022-07-18T05:40:41;5.47;;;5.17;;
462;SDS011;218;51.902;9.542;2022-07-18T05:43:08;6.10;;;5.63;;
462;SDS011;218;51.902;9.542;2022-07-18T05:45:36;5.07;;;4.80;;
462;SDS011;218;51.902;9.542;2022-07-18T05:48:04;5.20;;;5.00;;
462;SDS011;218;51.902;9.542;2022-07-18T05:50:32;5.37;;;4.97;;
462;SDS011;218;51.902;9.542;2022-07-18T05:52:59;5.33;;;5.13;;
462;SDS011;218;51.902;9.542;2022-07-18T05:55:27;5.20;;;4.90;;
462;SDS011;218;51.902;9.542;2022-07-18T05:57:54;5.13;;;4.83;;
462;SDS011;218;51.902;9.542;2022-07-18T06:00:21;5.80;;;5.50;;
462;SDS011;218;51.902;9.542;2022-07-18T06:02:49;5.77;;;5.47;;
462;SDS011;218;51.902;9.542;2022-07-18T06:05:18;6.07;;;5.67;;
462;SDS011;218;51.902;9.542;2022-07-18T06:08:03;5.97;;;5.60;;
462;SDS011;218;51.902;9.542;2022-07-18T06:10:32;6.27;;;5.67;;
462;SDS011;218;51.902;9.542;2022-07-18T06:12:59;6.73;;;6.23;;
462;SDS011;218;51.902;9.542;2022-07-18T06:15:26;5.80;;;5.50;;
462;SDS011;218;51.902;9.542;2022-07-18T06:17:53;5.63;;;5.33;;
462;SDS011;218;51.902;9.542;2022-07-18T06:20:20;6.10;;;5.50;;
462;SDS011;218;51.902;9.542;2022-07-18T06:22:48;5.40;;;5.00;;
462;SDS011;218;51.902;9.542;2022-07-18T06:25:15;6.10;;;5.60;;
462;SDS011;218;51.902;9.542;2022-07-18T06:27:43;6.60;;;6.10;;
462;SDS011;218;51.902;9.542;2022-07-18T06:30:10;5.77;;;5.37;;
462;SDS011;218;51.902;9.542;2022-07-18T06:32:38;5.87;;;5.47;;
462;SDS011;218;51.902;9.542;2022-07-18T06:35:08;5.43;;;5.00;;
462;SDS011;218;51.902;9.542;2022-07-18T06:37:45;6.00;;;5.50;;
462;SDS011;218;51.902;9.542;2022-07-18T06:40:12;5.07;;;4.70;;
462;SDS011;218;51.902;9.542;2022-07-18T06:42:39;5.27;;;4.97;;
462;SDS011;218;51.902;9.542;2022-07-18T06:45:08;5.50;;;4.93;;
462;SDS011;218;51.902;9.542;2022-07-18T06:47:35;4.97;;;4.67;;
462;SDS011;218;51.902;9.542;2022-07-18T06:50:03;4.67;;;4.47;;
462;SDS011;218;51.902;9.542;2022-07-18T06:52:30;5.30;;;4.90;;
462;SDS011;218;51.902;9.542;2022-07-18T06:54:57;4.90;;;4.60;;
462;SDS011;218;51.902;9.542;2022-07-18T06:57:25;4.67;;;4.37;;
462;SDS011;218;51.902;9.542;2022-07-18T06:59:53;4.43;;;4.00;;
462;SDS011;218;51.902;9.542;2022-07-18T07:02:21;4.40;;;4.10;;
462;SDS011;218;51.902;9.542;2022-07-18T07:04:48;4.60;;;4.30;;
462;SDS011;218;51.902;9.542;2022-07-18T07:07:15;4.07;;;3.77;;
462;SDS011;218;51.902;9.542;2022-07-18T07:09:49;5.33;;;4.23;;
462;SDS011;218;51.902;9.542;2022-07-18T07:12:20;3.90;;;3.70;;
462;SDS011;218;51.902;9.542;2022-07-18T07:14:47;4.53;;;4.13;;
462;SDS011;218;51.902;9.542;2022-07-18T07:17:14;4.80;;;4.40;;
462;SDS011;218;51.902;9.542;2022-07-18T07:19:42;4.13;;;3.63;;
462;SDS011;218;51.902;9.542;2022-07-18T07:22:09;3.97;;;3.77;;
462;SDS011;218;51.902;9.542;2022-07-18T07:24:36;4.63;;;4.23;;
462;SDS011;218;51.902;9.542;2022-07-18T07:27:05;4.10;;;3.80;;
462;SDS011;218;51.902;9.542;2022-07-18T07:29:32;4.20;;;3.43;;
462;SDS011;218;51.902;9.542;2022-07-18T07:31:59;3.93;;;3.63;;
462;SDS011;218;51.902;9.542;2022-07-18T07:34:26;5.60;;;3.90;;
462;SDS011;218;51.902;9.542;2022-07-18T07:36:56;3.70;;;3.50;;
462;SDS011;218;51.902;9.542;2022-07-18T07:39:23;4.20;;;3.90;;
462;SDS011;218;51.902;9.542;2022-07-18T07:41:50;4.33;;;4.03;;
462;SDS011;218;51.902;9.542;2022-07-18T07:44:17;3.60;;;3.40;;
462;SDS011;218;51.902;9.542;2022-07-18T07:46:44;3.87;;;3.57;;
462;SDS011;218;51.902;9.542;2022-07-18T07:49:11;4.00;;;3.70;;
462;SDS011;218;51.902;9.542;2022-07-18T07:51:39;3.47;;;3.27;;
462;SDS011;218;51.902;9.542;2022-07-18T07:54:07;4.20;;;3.90;;
462;SDS011;218;51.902;9.542;2022-07-18T07:56:34;4.00;;;3.60;;
462;SDS011;218;51.902;9.542;2022-07-18T07:59:01;5.27;;;3.37;;
462;SDS011;218;51.902;9.542;2022-07-18T08:01:28;3.63;;;3.20;;
462;SDS011;218;51.902;9.542;2022-07-18T08:03:55;4.17;;;3.77;;
462;SDS011;218;51.902;9.542;2022-07-18T08:06:22;4.03;;;3.80;;
462;SDS011;218;51.902;9.542;2022-07-18T08:08:49;3.20;;;3.00;;
462;SDS011;218;51.902;9.542;2022-07-18T08:11:18;3.57;;;3.17;;
462;SDS011;218;51.902;9.542;2022-07-18T08:13:45;3.10;;;2.90;;
462;SDS011;218;51.902;9.542;2022-07-18T08:16:12;4.50;;;3.47;;
462;SDS011;218;51.902;9.542;2022-07-18T08:18:39;8.60;;;2.90;;
462;SDS011;218;51.902;9.542;2022-07-18T08:21:06;3.43;;;3.13;;
462;SDS011;218;51.902;9.542;2022-07-18T08:23:33;3.17;;;2.93;;
462;SDS011;218;51.902;9.542;2022-07-18T08:26:01;3.47;;;3.17;;
462;SDS011;218;51.902;9.542;2022-07-18T08:28:29;3.53;;;3.30;;
462;SDS011;218;51.902;9.542;2022-07-18T08:30:56;4.13;;;3.80;;
462;SDS011;218;51.902;9.542;2022-07-18T08:33:23;3.40;;;3.10;;
462;SDS011;218;51.902;9.542;2022-07-18T08:35:50;4.20;;;3.00;;
462;SDS011;218;51.902;9.542;2022-07-18T08:38:17;3.73;;;3.30;;
462;SDS011;218;51.902;9.542;2022-07-18T08:40:44;3.40;;;3.20;;
462;SDS011;218;51.902;9.542;2022-07-18T08:43:14;3.93;;;3.43;;
462;SDS011;218;51.902;9.542;2022-07-18T08:45:43;3.13;;;2.90;;
462;SDS011;218;51.902;9.542;2022-07-18T08:48:12;2.53;;;2.33;;
462;SDS011;218;51.902;9.542;2022-07-18T08:50:41;5.03;;;2.80;;
462;SDS011;218;51.902;9.542;2022-07-18T08:53:09;2.30;;;2.10;;
462;SDS011;218;51.902;9.542;2022-07-18T08:55:38;2.33;;;2.13;;
462;SDS011;218;51.902;9.542;2022-07-18T08:58:05;3.00;;;2.70;;
462;SDS011;218;51.902;9.542;2022-07-18T09:00:33;2.13;;;2.03;;
462;SDS011;218;51.902;9.542;2022-07-18T09:03:02;2.50;;;2.30;;
462;SDS011;218;51.902;9.542;2022-07-18T09:05:30;2.40;;;2.20;;
462;SDS011;218;51.902;9.542;2022-07-18T09:08:07;2.67;;;2.40;;
462;SDS011;218;51.902;9.542;2022-07-18T09:10:41;2.77;;;2.57;;
462;SDS011;218;51.902;9.542;2022-07-18T09:13:15;2.50;;;2.30;;
462;SDS011;218;51.902;9.542;2022-07-18T09:15:56;2.93;;;2.50;;
462;SDS011;218;51.902;9.542;2022-07-18T09:18:29;3.70;;;2.47;;
462;SDS011;218;51.902;9.542;2022-07-18T09:20:57;2.80;;;2.10;;
462;SDS011;218;51.902;9.542;2022-07-18T09:23:26;3.23;;;2.90;;
462;SDS011;218;51.902;9.542;2022-07-18T09:25:55;3.10;;;2.50;;
462;SDS011;218;51.902;9.542;2022-07-18T09:28:22;2.53;;;2.33;;
462;SDS011;218;51.902;9.542;2022-07-18T09:30:49;3.03;;;2.70;;
462;SDS011;218;51.902;9.542;2022-07-18T09:33:16;3.47;;;3.20;;
462;SDS011;218;51.902;9.542;2022-07-18T09:35:47;4.60;;;3.07;;
462;SDS011;218;51.902;9.542;2022-07-18T09:38:16;3.60;;;3.30;;
462;SDS011;218;51.902;9.542;2022-07-18T09:40:47;3.67;;;3.40;;
462;SDS011;218;51.902;9.542;2022-07-18T09:46:06;4.30;;;4.00;;
462;SDS011;218;51.902;9.542;2022-07-18T09:48:34;3.97;;;3.53;;
462;SDS011;218;51.902;9.542;2022-07-18T09:51:03;3.20;;;2.90;;
462;SDS011;218;51.902;9.542;2022-07-18T09:53:31;3.57;;;3.37;;
462;SDS011;218;51.902;9.542;2022-07-18T09:56:00;3.63;;;3.43;;
462;SDS011;218;51.902;9.542;2022-07-18T09:58:30;3.80;;;3.50;;
462;SDS011;218;51.902;9.542;2022-07-18T10:01:00;4.10;;;3.80;;
462;SDS011;218;51.902;9.542;2022-07-18T10:03:28;3.63;;;3.40;;
462;SDS011;218;51.902;9.542;2022-07-18T10:05:55;3.83;;;3.53;;
462;SDS011;218;51.902;9.542;2022-07-18T10:08:25;3.40;;;3.20;;
462;SDS011;218;51.902;9.542;2022-07-18T10:10:54;4.00;;;3.80;;
462;SDS011;218;51.902;9.542;2022-07-18T10:13:24;4.00;;;3.70;;
462;SDS011;218;51.902;9.542;2022-07-18T10:15:53;3.60;;;3.40;;
462;SDS011;218;51.902;9.542;2022-07-18T10:18:21;3.03;;;2.93;;
462;SDS011;218;51.902;9.542;2022-07-18T10:20:50;3.83;;;3.53;;
462;SDS011;218;51.902;9.542;2022-07-18T10:23:23;3.53;;;3.33;;
462;SDS011;218;51.902;9.542;2022-07-18T10:26:06;3.50;;;3.30;;
462;SDS011;218;51.902;9.542;2022-07-18T10:31:36;3.40;;;3.20;;
462;SDS011;218;51.902;9.542;2022-07-18T10:34:11;4.00;;;3.70;;
462;SDS011;218;51.902;9.542;2022-07-18T10:36:38;3.30;;;3.10;;
462;SDS011;218;51.902;9.542;2022-07-18T10:39:33;5.20;;;3.30;;
462;SDS011;218;51.902;9.542;2022-07-18T10:44:56;4.07;;;3.70;;
462;SDS011;218;51.902;9.542;2022-07-18T10:47:27;4.27;;;3.70;;
462;SDS011;218;51.902;9.542;2022-07-18T10:50:03;3.80;;;3.50;;
462;SDS011;218;51.902;9.542;2022-07-18T10:58:16;4.03;;;3.63;;
462;SDS011;218;51.902;9.542;2022-07-18T11:00:44;3.30;;;3.10;;
462;SDS011;218;51.902;9.542;2022-07-18T11:03:15;3.50;;;3.20;;
462;SDS011;218;51.902;9.542;2022-07-18T11:05:48;3.33;;;3.13;;
462;SDS011;218;51.902;9.542;2022-07-18T11:08:17;3.10;;;2.90;;
462;SDS011;218;51.902;9.542;2022-07-18T11:13:40;3.27;;;3.07;;
462;SDS011;218;51.902;9.542;2022-07-18T11:16:16;2.97;;;2.77;;
462;SDS011;218;51.902;9.542;2022-07-18T11:21:43;4.07;;;3.83;;
462;SDS011;218;51.902;9.542;2022-07-18T11:24:11;5.53;;;3.43;;
462;SDS011;218;51.902;9.542;2022-07-18T11:26:44;3.60;;;3.40;;
462;SDS011;218;51.902;9.542;2022-07-18T11:29:13;4.40;;;4.10;;
462;SDS011;218;51.902;9.542;2022-07-18T11:31:45;4.30;;;3.90;;
462;SDS011;218;51.902;9.542;2022-07-18T11:34:13;3.87;;;3.57;;
462;SDS011;218;51.902;9.542;2022-07-18T11:36:41;3.80;;;3.60;;
462;SDS011;218;51.902;9.542;2022-07-18T11:39:10;3.63;;;3.33;;
462;SDS011;218;51.902;9.542;2022-07-18T11:41:39;4.80;;;4.50;;
462;SDS011;218;51.902;9.542;2022-07-18T11:44:16;4.10;;;3.80;;
462;SDS011;218;51.902;9.542;2022-07-18T11:46:46;4.20;;;3.90;;
462;SDS011;218;51.902;9.542;2022-07-18T11:49:13;4.43;;;4.00;;
462;SDS011;218;51.902;9.542;2022-07-18T11:51:44;4.40;;;4.10;;
462;SDS011;218;51.902;9.542;2022-07-18T11:54:11;4.47;;;3.97;;
462;SDS011;218;51.902;9.542;2022-07-18T11:56:51;4.67;;;4.27;;
462;SDS011;218;51.902;9.542;2022-07-18T11:59:21;4.10;;;3.80;;
462;SDS011;218;51.902;9.542;2022-07-18T12:01:49;3.23;;;3.03;;
462;SDS011;218;51.902;9.542;2022-07-18T12:04:18;4.30;;;4.00;;
462;SDS011;218;51.902;9.542;2022-07-18T12:09:41;3.80;;;3.50;;
462;SDS011;218;51.902;9.542;2022-07-18T12:12:09;4.20;;;3.60;;
462;SDS011;218;51.902;9.542;2022-07-18T12:14:38;3.90;;;3.67;;
462;SDS011;218;51.902;9.542;2022-07-18T12:17:06;3.17;;;2.97;;
462;SDS011;218;51.902;9.542;2022-07-18T12:19:34;3.27;;;3.00;;
462;SDS011;218;51.902;9.542;2022-07-18T12:22:06;3.17;;;2.97;;
462;SDS011;218;51.902;9.542;2022-07-18T12:24:35;3.67;;;3.27;;
462;SDS011;218;51.902;9.542;2022-07-18T12:27:07;3.23;;;3.00;;
462;SDS011;218;51.902;9.542;2022-07-18T12:29:57;3.23;;;3.03;;
462;SDS011;218;51.902;9.542;2022-07-18T12:32:38;2.87;;;2.67;;
462;SDS011;218;51.902;9.542;2022-07-18T12:35:07;2.97;;;2.77;;
462;SDS011;218;51.902;9.542;2022-07-18T12:37:37;3.50;;;3.20;;
462;SDS011;218;51.902;9.542;2022-07-18T12:40:05;3.43;;;3.13;;
462;SDS011;218;51.902;9.542;2022-07-18T12:42:35;3.23;;;3.03;;
462;SDS011;218;51.902;9.542;2022-07-18T12:45:08;3.33;;;3.13;;
462;SDS011;218;51.902;9.542;2022-07-18T12:47:36;3.23;;;3.03;;
462;SDS011;218;51.902;9.542;2022-07-18T12:50:04;3.80;;;3.50;;
462;SDS011;218;51.902;9.542;2022-07-18T12:52:34;3.23;;;3.03;;
462;SDS011;218;51.902;9.542;2022-07-18T12:55:01;3.97;;;3.67;;
462;SDS011;218;51.902;9.542;2022-07-18T12:57:30;3.60;;;3.30;;
462;SDS011;218;51.902;9.542;2022-07-18T12:59:57;2.57;;;2.37;;
462;SDS011;218;51.902;9.542;2022-07-18T13:02:25;3.27;;;3.07;;
462;SDS011;218;51.902;9.542;2022-07-18T13:04:52;3.10;;;2.90;;
462;SDS011;218;51.902;9.542;2022-07-18T13:07:19;4.23;;;3.10;;
462;SDS011;218;51.902;9.542;2022-07-18T13:09:46;5.70;;;3.07;;
462;SDS011;218;51.902;9.542;2022-07-18T13:12:13;3.23;;;2.97;;
462;SDS011;218;51.902;9.542;2022-07-18T13:14:41;3.33;;;3.03;;
462;SDS011;218;51.902;9.542;2022-07-18T13:17:08;3.00;;;2.80;;
462;SDS011;218;51.902;9.542;2022-07-18T13:19:36;3.20;;;2.90;;
462;SDS011;218;51.902;9.542;2022-07-18T13:22:06;3.20;;;3.00;;
462;SDS011;218;51.902;9.542;2022-07-18T13:24:33;3.43;;;3.23;;
462;SDS011;218;51.902;9.542;2022-07-18T13:27:02;3.30;;;3.10;;
462;SDS011;218;51.902;9.542;2022-07-18T13:29:29;2.83;;;2.63;;
462;SDS011;218;51.902;9.542;2022-07-18T13:31:56;3.53;;;3.23;;
462;SDS011;218;51.902;9.542;2022-07-18T13:34:23;3.43;;;2.70;;
462;SDS011;218;51.902;9.542;2022-07-18T13:36:52;3.50;;;3.20;;
462;SDS011;218;51.902;9.542;2022-07-18T13:39:20;3.60;;;2.83;;
462;SDS011;218;51.902;9.542;2022-07-18T13:41:47;5.50;;;3.10;;
462;SDS011;218;51.902;9.542;2022-07-18T13:44:15;3.30;;;2.70;;
462;SDS011;218;51.902;9.542;2022-07-18T13:46:43;3.20;;;3.00;;
462;SDS011;218;51.902;9.542;2022-07-18T13:49:10;2.67;;;2.50;;
462;SDS011;218;51.902;9.542;2022-07-18T13:51:38;3.57;;;2.87;;
462;SDS011;218;51.902;9.542;2022-07-18T13:54:06;2.80;;;2.50;;
462;SDS011;218;51.902;9.542;2022-07-18T13:56:33;2.60;;;2.50;;
462;SDS011;218;51.902;9.542;2022-07-18T13:59:01;2.50;;;2.33;;
462;SDS011;218;51.902;9.542;2022-07-18T14:01:28;2.87;;;2.67;;
462;SDS011;218;51.902;9.542;2022-07-18T14:03:56;3.00;;;2.80;;
462;SDS011;218;51.902;9.542;2022-07-18T14:06:23;3.13;;;2.93;;
462;SDS011;218;51.902;9.542;2022-07-18T14:08:50;3.10;;;2.90;;
462;SDS011;218;51.902;9.542;2022-07-18T14:11:18;3.00;;;2.80;;
462;SDS011;218;51.902;9.542;2022-07-18T14:13:45;3.03;;;2.73;;
462;SDS011;218;51.902;9.542;2022-07-18T14:16:16;2.87;;;2.67;;
462;SDS011;218;51.902;9.542;2022-07-18T14:18:43;3.00;;;2.77;;
462;SDS011;218;51.902;9.542;2022-07-18T14:21:12;3.00;;;2.70;;
462;SDS011;218;51.902;9.542;2022-07-18T14:23:39;2.70;;;2.60;;
462;SDS011;218;51.902;9.542;2022-07-18T14:26:06;4.40;;;2.90;;
462;SDS011;218;51.902;9.542;2022-07-18T14:28:35;4.00;;;2.60;;
462;SDS011;218;51.902;9.542;2022-07-18T14:31:02;2.97;;;2.70;;
462;SDS011;218;51.902;9.542;2022-07-18T14:33:29;2.70;;;2.50;;
462;SDS011;218;51.902;9.542;2022-07-18T14:35:56;2.67;;;2.57;;
462;SDS011;218;51.902;9.542;2022-07-18T14:38:23;2.93;;;2.77;;
462;SDS011;218;51.902;9.542;2022-07-18T14:40:50;2.67;;;2.57;;
462;SDS011;218;51.902;9.542;2022-07-18T14:43:18;3.23;;;3.03;;
462;SDS011;218;51.902;9.542;2022-07-18T14:45:47;3.20;;;2.83;;
462;SDS011;218;51.902;9.542;2022-07-18T14:48:17;4.10;;;2.87;;
462;SDS011;218;51.902;9.542;2022-07-18T14:50:44;3.00;;;2.80;;
462;SDS011;218;51.902;9.542;2022-07-18T14:53:11;3.10;;;2.90;;
462;SDS011;218;51.902;9.542;2022-07-18T14:55:39;2.90;;;2.70;;
462;SDS011;218;51.902;9.542;2022-07-18T14:58:06;2.63;;;2.43;;
462;SDS011;218;51.902;9.542;2022-07-18T15:00:33;3.13;;;2.80;;
462;SDS011;218;51.902;9.542;2022-07-18T15:03:02;3.70;;;3.20;;
462;SDS011;218;51.902;9.542;2022-07-18T15:05:29;3.40;;;2.60;;
462;SDS011;218;51.902;9.542;2022-07-18T15:07:56;3.20;;;2.90;;
462;SDS011;218;51.902;9.542;2022-07-18T15:10:23;3.03;;;2.83;;
462;SDS011;218;51.902;9.542;2022-07-18T15:12:50;3.10;;;2.90;;
462;SDS011;218;51.902;9.542;2022-07-18T15:15:17;3.00;;;2.80;;
462;SDS011;218;51.902;9.542;2022-07-18T15:17:44;3.13;;;2.93;;
462;SDS011;218;51.902;9.542;2022-07-18T15:20:12;4.00;;;2.93;;
462;SDS011;218;51.902;9.542;2022-07-18T15:22:42;3.13;;;2.93;;
462;SDS011;218;51.902;9.542;2022-07-18T15:25:10;3.10;;;2.80;;
462;SDS011;218;51.902;9.542;2022-07-18T15:27:37;3.33;;;3.10;;
462;SDS011;218;51.902;9.542;2022-07-18T15:30:05;2.80;;;2.60;;
462;SDS011;218;51.902;9.542;2022-07-18T15:32:32;2.93;;;2.70;;
462;SDS011;218;51.902;9.542;2022-07-18T15:35:03;4.53;;;3.77;;
462;SDS011;218;51.902;9.542;2022-07-18T15:37:32;3.60;;;3.30;;
462;SDS011;218;51.902;9.542;2022-07-18T15:39:59;2.87;;;2.63;;
462;SDS011;218;51.902;9.542;2022-07-18T15:42:26;3.83;;;2.70;;
462;SDS011;218;51.902;9.542;2022-07-18T15:44:53;3.50;;;3.20;;
462;SDS011;218;51.902;9.542;2022-07-18T15:47:22;3.10;;;2.90;;
462;SDS011;218;51.902;9.542;2022-07-18T15:49:50;3.20;;;3.00;;
462;SDS011;218;51.902;9.542;2022-07-18T15:53:00;3.87;;;3.20;;
462;SDS011;218;51.902;9.542;2022-07-18T15:55:27;3.03;;;2.83;;
462;SDS011;218;51.902;9.542;2022-07-18T15:57:58;3.73;;;3.43;;
462;SDS011;218;51.902;9.542;2022-07-18T16:00:26;4.33;;;3.20;;
462;SDS011;218;51.902;9.542;2022-07-18T16:02:53;3.97;;;3.63;;
462;SDS011;218;51.902;9.542;2022-07-18T16:05:21;3.30;;;3.10;;
462;SDS011;218;51.902;9.542;2022-07-18T16:07:48;5.07;;;3.10;;
462;SDS011;218;51.902;9.542;2022-07-18T16:10:16;3.00;;;2.80;;
462;SDS011;218;51.902;9.542;2022-07-18T16:12:46;4.00;;;3.23;;
462;SDS011;218;51.902;9.542;2022-07-18T16:15:29;3.50;;;3.23;;